Time;durP1;ratioP1;P1;durP2;ratioP2;P2;SDS_P1;SDS_P2;PMS_P1;PMS_P2;Temp;Humidity;BMP_temperature;BMP_pressure;BME280_temperature;BME280_humidity;BME280_pressure;Samples;Min_cycle;Max_cycle;Signal;HPM_P1;HPM_P2
2023/10/31 00:00:11;;;;;;;2.63;0.43;;;;;;;13.15;nan;98025.03;7396178;19;20011;-59
2023/10/31 00:02:38;;;;;;;0.80;0.80;;;;;;;12.56;nan;98026.34;7396134;19;20018;-59
2023/10/31 00:05:05;;;;;;;0.85;0.40;;;;;;;13.17;nan;98030.81;7398346;19;20011;-59
2023/10/31 00:07:31;;;;;;;1.08;0.73;;;;;;;13.25;nan;98034.50;7395989;19;20074;-60
2023/10/31 00:09:57;;;;;;;0.38;0.35;;;;;;;13.27;nan;98035.47;7400533;19;20031;-59
2023/10/31 00:12:24;;;;;;;1.92;0.70;;;;;;;13.31;nan;98038.69;7398077;19;20003;-59
2023/10/31 00:14:50;;;;;;;0.68;0.68;;;;;;;13.41;nan;98034.16;7397139;19;20467;-59
2023/10/31 00:17:16;;;;;;;1.55;1.13;;;;;;;13.54;nan;98036.94;7395322;19;20013;-59
2023/10/31 00:19:44;;;;;;;0.55;0.55;;;;;;;13.47;nan;98042.44;7396004;19;20055;-59
2023/10/31 00:22:10;;;;;;;0.73;0.73;;;;;;;13.60;nan;98040.38;7396848;19;20027;-59
2023/10/31 00:24:36;;;;;;;0.93;0.93;;;;;;;13.95;nan;98036.31;7397259;19;20015;-59
2023/10/31 00:27:03;;;;;;;3.08;1.13;;;;;;;13.69;nan;98030.78;7396513;19;20486;-58
2023/10/31 00:29:29;;;;;;;2.13;0.98;;;;;;;13.80;nan;98035.38;7397118;19;20018;-58
2023/10/31 00:31:55;;;;;;;1.00;0.95;;;;;;;13.59;nan;98038.88;7399086;19;20014;-61
2023/10/31 00:34:21;;;;;;;0.10;0.10;;;;;;;13.64;nan;98040.78;7399541;19;20020;-59
2023/10/31 00:36:47;;;;;;;1.35;1.25;;;;;;;13.68;nan;98043.28;7396460;19;20025;-59
2023/10/31 00:39:13;;;;;;;0.28;0.28;;;;;;;13.62;nan;98037.06;7396633;19;20059;-59
2023/10/31 00:41:45;;;;;;;1.98;1.27;;;;;;;13.84;nan;98039.34;7398770;19;20019;-58
2023/10/31 00:44:11;;;;;;;1.05;0.65;;;;;;;13.92;nan;98039.47;7397777;19;20018;-58
2023/10/31 00:46:37;;;;;;;1.15;0.77;;;;;;;13.67;nan;98034.13;7395253;19;20011;-59
2023/10/31 00:49:04;;;;;;;2.40;0.98;;;;;;;13.81;nan;98039.69;7396484;19;20010;-58
2023/10/31 00:51:30;;;;;;;0.40;0.40;;;;;;;13.83;nan;98040.66;7396009;19;20459;-58
2023/10/31 00:53:56;;;;;;;1.45;1.35;;;;;;;13.64;nan;98032.41;7397948;19;20011;-58
2023/10/31 00:56:22;;;;;;;0.80;0.40;;;;;;;13.67;nan;98045.31;7395181;19;20353;-58
2023/10/31 00:58:48;;;;;;;1.30;1.20;;;;;;;13.14;nan;98038.25;7396598;19;20011;-58
2023/10/31 01:01:14;;;;;;;0.20;0.20;;;;;;;13.66;nan;98037.47;7395378;19;20014;-59
2023/10/31 01:03:42;;;;;;;1.55;1.20;;;;;;;13.66;nan;98027.00;7394265;19;20018;-59
2023/10/31 01:06:08;;;;;;;0.93;0.57;;;;;;;12.81;nan;98027.66;7397604;19;20021;-59
2023/10/31 01:08:34;;;;;;;1.30;1.20;;;;;;;12.26;nan;98028.59;7394443;19;20039;-59
2023/10/31 01:11:00;;;;;;;0.60;0.50;;;;;;;12.71;nan;98024.53;7394851;19;20030;-59
2023/10/31 01:13:27;;;;;;;4.07;0.65;;;;;;;12.55;nan;98025.56;7393551;19;20039;-59
2023/10/31 01:15:53;;;;;;;0.50;0.43;;;;;;;12.69;nan;98026.38;7397903;19;20017;-59
2023/10/31 01:18:19;;;;;;;0.82;0.82;;;;;;;13.00;nan;98025.53;7398823;19;20017;-58
2023/10/31 01:20:45;;;;;;;0.75;0.75;;;;;;;13.96;nan;98031.47;7395643;19;20026;-58
2023/10/31 01:23:11;;;;;;;0.60;0.60;;;;;;;13.16;nan;98038.47;7394266;19;20018;-58
2023/10/31 01:25:37;;;;;;;1.00;0.85;;;;;;;13.12;nan;98029.66;7399000;19;20010;-59
2023/10/31 01:28:04;;;;;;;3.47;0.77;;;;;;;12.79;nan;98033.03;7394900;19;20067;-59
2023/10/31 01:30:30;;;;;;;2.55;0.45;;;;;;;13.55;nan;98038.47;7398971;19;20015;-59
2023/10/31 01:32:56;;;;;;;0.40;0.40;;;;;;;13.25;nan;98020.53;7396813;19;20396;-60
2023/10/31 01:35:22;;;;;;;0.85;0.85;;;;;;;13.09;nan;98024.38;7395587;19;20022;-59
2023/10/31 01:37:48;;;;;;;0.63;0.57;;;;;;;14.03;nan;98020.38;7394470;19;20010;-59
2023/10/31 01:40:15;;;;;;;2.10;1.10;;;;;;;12.80;nan;98028.94;7392024;19;20014;-59
2023/10/31 01:42:41;;;;;;;0.80;0.75;;;;;;;12.50;nan;98031.22;7395834;19;20014;-59
2023/10/31 01:45:08;;;;;;;0.47;0.47;;;;;;;12.99;nan;98020.50;7392548;19;20029;-58
2023/10/31 01:47:34;;;;;;;2.80;1.10;;;;;;;12.80;nan;98021.31;7393177;19;20007;-59
2023/10/31 01:50:01;;;;;;;7.15;2.55;;;;;;;13.42;nan;98018.13;7394506;19;20082;-59
2023/10/31 01:52:27;;;;;;;1.13;1.02;;;;;;;13.06;nan;98019.88;7393811;19;20039;-58
2023/10/31 01:54:54;;;;;;;5.15;0.52;;;;;;;15.03;nan;98018.66;7398635;19;20011;-58
2023/10/31 01:57:22;;;;;;;2.35;0.93;;;;;;;14.40;nan;98020.00;7393699;19;20077;-58
2023/10/31 01:59:48;;;;;;;0.35;0.35;;;;;;;12.88;nan;98015.84;7393334;19;20070;-58
2023/10/31 02:02:15;;;;;;;0.30;0.28;;;;;;;12.90;nan;98018.88;7394069;19;20359;-58
2023/10/31 02:04:41;;;;;;;1.00;0.73;;;;;;;12.81;nan;98017.25;7392207;19;20348;-58
2023/10/31 02:07:07;;;;;;;3.35;0.40;;;;;;;12.85;nan;98014.13;7397649;19;20006;-58
2023/10/31 02:09:33;;;;;;;2.47;0.60;;;;;;;12.26;nan;98014.66;7394163;19;20018;-58
2023/10/31 02:11:59;;;;;;;0.90;0.75;;;;;;;13.05;nan;98016.31;7391918;19;20027;-58
2023/10/31 02:14:25;;;;;;;0.75;0.63;;;;;;;13.37;nan;98016.97;7391048;19;20010;-58
2023/10/31 02:16:51;;;;;;;2.33;0.80;;;;;;;13.82;nan;98021.63;7394767;19;20011;-58
2023/10/31 02:19:21;;;;;;;0.75;0.55;;;;;;;13.26;nan;98022.78;7394033;19;20014;-58
2023/10/31 02:21:47;;;;;;;1.77;0.85;;;;;;;13.32;nan;98023.41;7391833;19;20021;-58
2023/10/31 02:24:13;;;;;;;0.68;0.65;;;;;;;13.31;nan;98027.50;7394963;19;20031;-58
2023/10/31 02:26:39;;;;;;;0.63;0.47;;;;;;;13.52;nan;98022.75;7393849;19;20007;-58
2023/10/31 02:29:06;;;;;;;0.30;0.30;;;;;;;13.85;nan;98026.13;7393835;19;20074;-58
2023/10/31 02:31:33;;;;;;;0.90;0.90;;;;;;;13.93;nan;98010.91;7391304;19;20058;-58
2023/10/31 02:34:00;;;;;;;1.45;0.70;;;;;;;14.04;nan;97998.72;7394195;19;20031;-58
2023/10/31 02:36:26;;;;;;;0.22;0.22;;;;;;;14.00;nan;97989.91;7391477;19;20042;-58
2023/10/31 02:38:52;;;;;;;0.38;0.38;;;;;;;13.92;nan;97987.03;7392944;19;20019;-59
2023/10/31 02:41:18;;;;;;;6.03;1.70;;;;;;;14.18;nan;98008.59;7392911;19;20022;-58
2023/10/31 02:43:44;;;;;;;1.70;1.45;;;;;;;13.82;nan;98010.44;7391349;19;20364;-58
2023/10/31 02:46:13;;;;;;;0.47;0.45;;;;;;;14.65;nan;98003.63;7392790;19;20099;-58
2023/10/31 02:48:39;;;;;;;1.15;0.60;;;;;;;15.47;nan;97999.88;7390930;19;20014;-58
2023/10/31 02:51:07;;;;;;;0.40;0.30;;;;;;;15.65;nan;97989.66;7393076;19;20023;-58
2023/10/31 02:53:35;;;;;;;0.28;0.28;;;;;;;15.86;nan;97984.69;7391470;19;20031;-58
2023/10/31 02:56:02;;;;;;;2.40;1.33;;;;;;;15.87;nan;97986.91;7392897;19;20014;-58
2023/10/31 02:58:28;;;;;;;6.07;0.88;;;;;;;15.17;nan;97988.47;7401272;19;20345;-58
2023/10/31 03:00:55;;;;;;;0.32;0.32;;;;;;;14.78;nan;97978.31;7399070;19;20017;-58
2023/10/31 03:03:21;;;;;;;0.77;0.52;;;;;;;15.12;nan;97970.50;7399837;19;20014;-58
2023/10/31 03:05:47;;;;;;;0.38;0.20;;;;;;;15.64;nan;97979.72;7398963;19;20022;-58
2023/10/31 03:08:13;;;;;;;0.47;0.47;;;;;;;13.06;nan;97975.91;7402303;19;20359;-58
2023/10/31 03:10:41;;;;;;;0.35;0.35;;;;;;;13.56;nan;97972.81;7399913;19;20070;-58
2023/10/31 03:13:08;;;;;;;4.32;0.68;;;;;;;13.45;nan;97978.66;7400042;19;20021;-58
2023/10/31 03:15:34;;;;;;;0.63;0.63;;;;;;;13.92;nan;97967.47;7399503;19;20758;-59
2023/10/31 03:18:00;;;;;;;0.28;0.28;;;;;;;14.68;nan;97966.09;7400746;19;20010;-58
2023/10/31 03:20:26;;;;;;;0.50;0.50;;;;;;;14.03;nan;97975.59;7398571;19;20066;-59
2023/10/31 03:22:54;;;;;;;0.10;0.10;;;;;;;14.11;nan;97970.06;7396789;19;20029;-58
2023/10/31 03:25:20;;;;;;;1.85;0.40;;;;;;;12.92;nan;97977.19;7402340;19;20010;-58
2023/10/31 03:27:46;;;;;;;0.70;0.50;;;;;;;13.14;nan;97976.78;7397475;19;20010;-58
2023/10/31 03:30:13;;;;;;;1.40;0.65;;;;;;;13.89;nan;97990.91;7402761;19;20018;-58
2023/10/31 03:32:39;;;;;;;0.93;0.93;;;;;;;12.21;nan;97993.91;7399024;19;20006;-58
2023/10/31 03:35:06;;;;;;;0.77;0.30;;;;;;;13.47;nan;98004.03;7397626;19;20022;-58
2023/10/31 03:37:32;;;;;;;0.10;0.10;;;;;;;13.60;nan;97995.63;7398549;19;20018;-58
2023/10/31 03:39:58;;;;;;;0.45;0.25;;;;;;;13.65;nan;97996.78;7398845;19;20014;-58
2023/10/31 03:42:24;;;;;;;0.10;0.10;;;;;;;13.68;nan;97996.47;7396799;19;20014;-58
2023/10/31 03:44:51;;;;;;;0.43;0.40;;;;;;;13.61;nan;97991.53;7397414;19;20017;-58
2023/10/31 03:47:17;;;;;;;0.50;0.50;;;;;;;13.62;nan;97998.63;7397850;19;20019;-58
2023/10/31 03:49:43;;;;;;;2.75;0.20;;;;;;;11.44;nan;97990.19;7399693;19;20475;-58
2023/10/31 03:52:10;;;;;;;0.38;0.10;;;;;;;11.12;nan;98006.03;7398478;19;20011;-58
2023/10/31 03:54:36;;;;;;;0.40;0.40;;;;;;;11.02;nan;98010.47;7397226;19;20027;-58
2023/10/31 03:57:02;;;;;;;0.47;0.47;;;;;;;12.98;nan;97997.38;7397329;19;20010;-58
2023/10/31 03:59:28;;;;;;;0.10;0.10;;;;;;;12.72;nan;98008.53;7398487;19;20038;-58
2023/10/31 04:01:54;;;;;;;0.43;0.32;;;;;;;11.67;nan;98005.38;7396325;19;20014;-58
2023/10/31 04:04:20;;;;;;;0.20;0.20;;;;;;;12.14;nan;98009.25;7403048;19;20011;-58
2023/10/31 04:06:47;;;;;;;0.90;0.15;;;;;;;13.31;nan;98013.53;7398279;19;20007;-58
2023/10/31 04:09:13;;;;;;;0.47;0.47;;;;;;;14.08;nan;98024.31;7398285;19;20093;-58
2023/10/31 04:11:41;;;;;;;0.10;0.10;;;;;;;11.98;nan;98026.97;7396962;19;20010;-58
2023/10/31 04:14:07;;;;;;;0.43;0.40;;;;;;;11.49;nan;98039.53;7398462;19;20014;-58
2023/10/31 04:16:38;;;;;;;0.22;0.22;;;;;;;11.17;nan;98038.66;7395894;19;20018;-58
2023/10/31 04:19:04;;;;;;;0.10;0.10;;;;;;;10.90;nan;98054.38;7398201;19;20034;-58
2023/10/31 04:21:31;;;;;;;0.10;0.10;;;;;;;11.14;nan;98059.94;7398347;19;20011;-58
2023/10/31 04:23:57;;;;;;;0.45;0.45;;;;;;;11.10;nan;98056.69;7396768;19;20026;-58
2023/10/31 04:26:23;;;;;;;1.05;0.22;;;;;;;11.82;nan;98057.91;7395874;19;20357;-58
2023/10/31 04:28:49;;;;;;;0.20;0.20;;;;;;;12.36;nan;98057.63;7396145;19;20011;-57
2023/10/31 04:31:15;;;;;;;0.32;0.30;;;;;;;12.39;nan;98053.78;7396658;19;20045;-58
2023/10/31 04:33:41;;;;;;;0.17;0.17;;;;;;;11.22;nan;98049.72;7400283;19;20014;-58
2023/10/31 04:36:07;;;;;;;0.17;0.17;;;;;;;11.56;nan;98049.34;7396776;19;20011;-58
2023/10/31 04:38:37;;;;;;;0.10;0.00;;;;;;;11.56;nan;98041.72;7397143;19;20014;-58
2023/10/31 04:41:03;;;;;;;0.32;0.32;;;;;;;11.98;nan;98021.41;7400854;19;20017;-58
2023/10/31 04:43:29;;;;;;;0.10;0.10;;;;;;;13.49;nan;98007.03;7393419;19;20010;-58
2023/10/31 04:45:55;;;;;;;0.52;0.40;;;;;;;12.82;nan;98004.03;7395130;19;20385;-58
2023/10/31 04:48:21;;;;;;;0.32;0.32;;;;;;;13.47;nan;98026.41;7397115;19;20029;-58
2023/10/31 04:50:47;;;;;;;0.50;0.30;;;;;;;13.55;nan;98038.47;7400693;19;20007;-58
2023/10/31 04:53:14;;;;;;;0.10;0.10;;;;;;;13.81;nan;98039.69;7395981;19;20010;-58
2023/10/31 04:55:40;;;;;;;1.50;0.32;;;;;;;14.41;nan;98043.19;7395956;19;20014;-58
2023/10/31 04:58:06;;;;;;;0.10;0.10;;;;;;;14.70;nan;98044.75;7395726;19;20619;-59
2023/10/31 05:00:32;;;;;;;0.47;0.47;;;;;;;13.65;nan;98053.50;7399006;19;20455;-58
2023/10/31 05:02:59;;;;;;;0.28;0.28;;;;;;;14.42;nan;98051.03;7398589;19;20010;-58
2023/10/31 05:05:25;;;;;;;0.85;0.35;;;;;;;13.26;nan;98050.72;7394865;19;20498;-58
2023/10/31 05:07:52;;;;;;;0.28;0.20;;;;;;;13.96;nan;98054.63;7395222;19;20038;-58
2023/10/31 05:10:18;;;;;;;0.35;0.35;;;;;;;12.78;nan;98051.06;7398449;19;20345;-59
2023/10/31 05:12:44;;;;;;;0.35;0.20;;;;;;;12.55;nan;98049.94;7394472;19;20025;-58
2023/10/31 05:15:10;;;;;;;1.95;0.43;;;;;;;11.41;nan;98058.13;7396155;19;20010;-58
2023/10/31 05:17:37;;;;;;;0.10;0.10;;;;;;;10.72;nan;98062.66;7393833;19;20470;-58
2023/10/31 05:20:03;;;;;;;0.10;0.10;;;;;;;10.82;nan;98058.25;7396018;19;20014;-58
2023/10/31 05:22:29;;;;;;;0.47;0.35;;;;;;;10.84;nan;98061.28;7395018;19;20034;-58
2023/10/31 05:24:55;;;;;;;1.60;0.90;;;;;;;10.53;nan;98060.53;7398041;19;20011;-58
2023/10/31 05:27:21;;;;;;;0.25;0.25;;;;;;;10.75;nan;98058.81;7395589;19;20015;-58
2023/10/31 05:29:47;;;;;;;0.10;0.10;;;;;;;10.57;nan;98060.22;7397819;19;20014;-58
2023/10/31 05:32:14;;;;;;;0.10;0.10;;;;;;;10.68;nan;98060.91;7395615;19;20122;-58
2023/10/31 05:34:41;;;;;;;0.10;0.10;;;;;;;11.23;nan;98056.06;7393511;19;20010;-58
2023/10/31 05:37:08;;;;;;;0.75;0.20;;;;;;;10.67;nan;98055.88;7395084;19;20022;-59
2023/10/31 05:39:36;;;;;;;0.95;0.35;;;;;;;10.42;nan;98070.97;7394780;19;20010;-58
2023/10/31 05:42:03;;;;;;;0.10;0.10;;;;;;;10.63;nan;98069.31;7394052;19;20010;-58
2023/10/31 05:44:29;;;;;;;2.20;0.30;;;;;;;11.81;nan;98068.28;7394347;19;20090;-58
2023/10/31 05:46:55;;;;;;;0.10;0.10;;;;;;;11.64;nan;98059.38;7393283;19;20070;-58
2023/10/31 05:49:21;;;;;;;0.05;0.00;;;;;;;11.23;nan;98059.59;7394403;19;20011;-58
2023/10/31 05:51:51;;;;;;;0.10;0.10;;;;;;;11.11;nan;98060.25;7393643;19;20088;-58
2023/10/31 05:54:17;;;;;;;0.10;0.10;;;;;;;11.98;nan;98054.88;7392400;19;20014;-58
2023/10/31 05:56:44;;;;;;;0.95;0.20;;;;;;;11.30;nan;98061.06;7393980;19;20022;-58
2023/10/31 05:59:11;;;;;;;0.40;0.40;;;;;;;11.80;nan;98052.81;7394106;19;20015;-59
2023/10/31 06:01:37;;;;;;;0.10;0.00;;;;;;;13.21;nan;98056.44;7392827;19;20006;-58
2023/10/31 06:04:04;;;;;;;0.73;0.70;;;;;;;12.78;nan;98068.59;7396159;19;20002;-59
2023/10/31 06:06:33;;;;;;;0.30;0.30;;;;;;;11.86;nan;98063.94;7393718;19;20010;-59
2023/10/31 06:08:59;;;;;;;0.22;0.22;;;;;;;11.69;nan;98069.72;7391876;19;20022;-59
2023/10/31 06:11:26;;;;;;;0.50;0.25;;;;;;;12.96;nan;98072.59;7394123;19;20026;-59
2023/10/31 06:13:52;;;;;;;0.28;0.28;;;;;;;12.33;nan;98089.38;7393953;19;20016;-59
2023/10/31 06:16:18;;;;;;;0.10;0.10;;;;;;;13.53;nan;98079.44;7395000;19;20011;-59
2023/10/31 06:18:44;;;;;;;0.10;0.10;;;;;;;13.49;nan;98076.22;7391158;19;20014;-59
2023/10/31 06:21:10;;;;;;;0.30;0.20;;;;;;;13.54;nan;98080.94;7397030;19;20872;-58
2023/10/31 06:23:38;;;;;;;0.50;0.30;;;;;;;14.10;nan;98074.91;7391893;19;20010;-58
2023/10/31 06:26:04;;;;;;;0.40;0.40;;;;;;;13.15;nan;98078.88;7392094;19;20014;-58
2023/10/31 06:28:34;;;;;;;0.10;0.10;;;;;;;13.56;nan;98079.09;7393556;19;20014;-58
2023/10/31 06:31:01;;;;;;;0.20;0.20;;;;;;;13.55;nan;98088.81;7395353;19;20014;-59
2023/10/31 06:33:27;;;;;;;0.32;0.32;;;;;;;14.46;nan;98101.13;7393834;19;20017;-59
2023/10/31 06:35:54;;;;;;;0.10;0.10;;;;;;;14.06;nan;98097.66;7392580;19;20400;-59
2023/10/31 06:38:20;;;;;;;0.68;0.35;;;;;;;13.37;nan;98095.25;7392420;19;20074;-59
2023/10/31 06:40:46;;;;;;;0.10;0.10;;;;;;;12.11;nan;98091.22;7393148;19;20018;-59
2023/10/31 06:43:12;;;;;;;0.10;0.00;;;;;;;11.66;nan;98100.66;7390470;19;20021;-58
2023/10/31 06:45:38;;;;;;;0.10;0.10;;;;;;;12.29;nan;98105.69;7393137;19;20014;-59
2023/10/31 06:48:07;;;;;;;0.10;0.00;;;;;;;12.76;nan;98103.91;7391857;19;20043;-59
2023/10/31 06:50:33;;;;;;;0.17;0.17;;;;;;;13.38;nan;98115.59;7393259;19;20014;-59
2023/10/31 06:52:59;;;;;;;0.57;0.57;;;;;;;11.15;nan;98114.38;7392857;19;20039;-59
2023/10/31 06:55:25;;;;;;;0.10;0.10;;;;;;;10.87;nan;98115.94;7392356;19;20014;-58
2023/10/31 06:57:51;;;;;;;0.22;0.17;;;;;;;10.87;nan;98121.50;7392353;19;20017;-58
2023/10/31 07:00:18;;;;;;;0.10;0.10;;;;;;;11.18;nan;98120.94;7392618;19;20347;-58
2023/10/31 07:02:44;;;;;;;0.08;0.00;;;;;;;11.51;nan;98117.81;7392504;19;20010;-58
2023/10/31 07:05:10;;;;;;;0.45;0.45;;;;;;;13.61;nan;98119.44;7391478;19;20011;-58
2023/10/31 07:07:36;;;;;;;0.90;0.40;;;;;;;14.03;nan;98109.19;7391745;19;20015;-58
2023/10/31 07:10:05;;;;;;;0.95;0.47;;;;;;;12.37;nan;98118.50;7392000;19;20367;-59
2023/10/31 07:12:31;;;;;;;0.20;0.20;;;;;;;14.39;nan;98127.00;7390381;19;20014;-59
2023/10/31 07:15:00;;;;;;;0.63;0.40;;;;;;;13.64;nan;98124.72;7392170;19;20014;-59
2023/10/31 07:17:27;;;;;;;1.10;0.50;;;;;;;13.52;nan;98134.63;7390905;19;20078;-59
2023/10/31 07:19:53;;;;;;;0.63;0.38;;;;;;;12.30;nan;98129.53;7392533;19;20019;-58
2023/10/31 07:22:19;;;;;;;0.10;0.10;;;;;;;12.08;nan;98136.91;7390790;19;20011;-59
2023/10/31 07:24:45;;;;;;;0.10;0.05;;;;;;;13.52;nan;98122.66;7394592;19;20034;-58
2023/10/31 07:27:11;;;;;;;0.10;0.10;;;;;;;12.88;nan;98138.78;7391694;19;20328;-59
2023/10/31 07:29:41;;;;;;;0.47;0.47;;;;;;;15.07;nan;98148.03;7391224;19;20006;-58
2023/10/31 07:32:08;;;;;;;0.10;0.00;;;;;;;13.84;nan;98139.34;7391384;19;20074;-59
2023/10/31 07:34:35;;;;;;;6.43;0.40;;;;;;;12.82;nan;98146.50;7392279;19;20014;-59
2023/10/31 07:37:01;;;;;;;0.10;0.10;;;;;;;14.15;nan;98146.84;7392471;19;20021;-59
2023/10/31 07:39:27;;;;;;;0.75;0.40;;;;;;;15.04;nan;98148.38;7394547;19;20003;-58
2023/10/31 07:41:53;;;;;;;0.20;0.20;;;;;;;15.03;nan;98150.41;7395475;19;20019;-58
2023/10/31 07:44:20;;;;;;;0.10;0.10;;;;;;;15.15;nan;98151.66;7400766;19;20376;-58
2023/10/31 07:46:46;;;;;;;0.20;0.20;;;;;;;16.34;nan;98157.84;7397561;19;20010;-58
2023/10/31 07:49:12;;;;;;;0.35;0.35;;;;;;;16.24;nan;98159.66;7397500;19;20467;-58
2023/10/31 07:51:38;;;;;;;2.80;0.30;;;;;;;16.03;nan;98161.81;7398149;19;20011;-58
2023/10/31 07:54:05;;;;;;;1.98;0.93;;;;;;;16.01;nan;98164.44;7397341;19;20066;-58
2023/10/31 07:56:32;;;;;;;0.32;0.17;;;;;;;15.97;nan;98163.28;7397695;19;20014;-58
2023/10/31 07:58:59;;;;;;;0.22;0.22;;;;;;;15.94;nan;98165.88;7397846;19;20454;-58
2023/10/31 08:01:25;;;;;;;0.20;0.17;;;;;;;15.97;nan;98152.81;7400177;19;20018;-58
2023/10/31 08:03:51;;;;;;;0.10;0.10;;;;;;;16.18;nan;98166.75;7398275;19;20014;-58
2023/10/31 08:06:19;;;;;;;0.77;0.47;;;;;;;14.08;nan;98167.06;7398204;19;20015;-58
2023/10/31 08:08:46;;;;;;;0.77;0.45;;;;;;;15.68;nan;98171.72;7396757;19;20345;-58
2023/10/31 08:11:12;;;;;;;0.80;0.35;;;;;;;15.98;nan;98176.78;7401859;19;20011;-58
2023/10/31 08:13:39;;;;;;;2.30;0.63;;;;;;;14.81;nan;98176.16;7396437;19;20099;-59
2023/10/31 08:16:06;;;;;;;2.65;0.55;;;;;;;15.04;nan;98165.94;7395710;19;20467;-58
2023/10/31 08:18:33;;;;;;;0.20;0.20;;;;;;;16.03;nan;98170.22;7396649;19;20015;-58
2023/10/31 08:20:59;;;;;;;0.30;0.30;;;;;;;16.02;nan;98160.31;7400709;19;20018;-58
2023/10/31 08:23:25;;;;;;;0.20;0.20;;;;;;;16.17;nan;98159.63;7395876;19;20459;-58
2023/10/31 08:25:52;;;;;;;0.47;0.45;;;;;;;16.21;nan;98155.16;7401851;19;20031;-58
2023/10/31 08:28:18;;;;;;;0.20;0.20;;;;;;;16.26;nan;98162.69;7396717;19;20014;-57
2023/10/31 08:30:44;;;;;;;0.80;0.38;;;;;;;16.27;nan;98163.41;7399567;19;20015;-57
2023/10/31 08:33:10;;;;;;;1.08;0.40;;;;;;;16.40;nan;98166.84;7399091;19;20017;-57
2023/10/31 08:35:37;;;;;;;0.20;0.20;;;;;;;16.38;nan;98163.84;7397160;19;20018;-58
2023/10/31 08:38:03;;;;;;;0.20;0.20;;;;;;;16.39;nan;98173.78;7396587;19;20039;-58
2023/10/31 08:40:30;;;;;;;1.20;0.82;;;;;;;16.44;nan;98172.09;7398474;19;20034;-57
2023/10/31 08:42:57;;;;;;;0.22;0.22;;;;;;;16.22;nan;98167.88;7396361;19;20018;-58
2023/10/31 08:45:23;;;;;;;0.10;0.00;;;;;;;16.33;nan;98181.59;7396283;19;20011;-57
2023/10/31 08:47:50;;;;;;;1.88;0.68;;;;;;;16.41;nan;98171.19;7397277;19;20018;-57
2023/10/31 08:50:16;;;;;;;0.43;0.43;;;;;;;16.45;nan;98185.59;7399193;19;20018;-57
2023/10/31 08:52:42;;;;;;;1.80;0.85;;;;;;;16.56;nan;98178.94;7395534;19;20337;-57
2023/10/31 08:55:08;;;;;;;0.30;0.30;;;;;;;16.42;nan;98183.91;7394308;19;20018;-57
2023/10/31 08:57:34;;;;;;;1.30;0.65;;;;;;;16.47;nan;98188.63;7395848;19;20014;-57
2023/10/31 09:00:00;;;;;;;0.75;0.38;;;;;;;16.63;nan;98181.03;7397113;19;20014;-57
2023/10/31 09:02:27;;;;;;;1.17;0.88;;;;;;;16.67;nan;98184.94;7395802;19;20021;-57
2023/10/31 09:04:53;;;;;;;7.53;0.75;;;;;;;16.74;nan;98182.72;7394148;19;20018;-57
2023/10/31 09:07:19;;;;;;;0.30;0.30;;;;;;;16.65;nan;98184.75;7396079;19;20019;-57
2023/10/31 09:09:45;;;;;;;0.93;0.70;;;;;;;16.60;nan;98184.94;7396680;19;20475;-58
2023/10/31 09:12:11;;;;;;;0.40;0.40;;;;;;;16.52;nan;98195.41;7395977;19;20011;-57
2023/10/31 09:14:38;;;;;;;1.45;0.47;;;;;;;16.64;nan;98191.69;7394817;19;20057;-57
2023/10/31 09:17:05;;;;;;;1.17;0.98;;;;;;;16.65;nan;98195.25;7395686;19;20082;-57
2023/10/31 09:19:31;;;;;;;0.15;0.15;;;;;;;15.93;nan;98194.53;7396489;19;20014;-57
2023/10/31 09:21:57;;;;;;;0.40;0.32;;;;;;;15.02;nan;98195.84;7395952;19;20010;-57
2023/10/31 09:24:24;;;;;;;0.10;0.10;;;;;;;15.52;nan;98189.00;7397169;19;20009;-57
2023/10/31 09:26:50;;;;;;;0.10;0.10;;;;;;;16.93;nan;98185.97;7395373;19;20014;-57
2023/10/31 09:29:16;;;;;;;2.38;0.70;;;;;;;17.32;nan;98191.06;7395271;19;20359;-57
2023/10/31 09:31:42;;;;;;;0.90;0.45;;;;;;;17.39;nan;98190.31;7399638;19;20014;-58
2023/10/31 09:34:09;;;;;;;2.42;1.63;;;;;;;17.43;nan;98185.06;7398418;19;20070;-58
2023/10/31 09:36:35;;;;;;;1.40;0.90;;;;;;;17.07;nan;98187.28;7395680;19;20011;-58
2023/10/31 09:39:02;;;;;;;10.30;1.13;;;;;;;14.15;nan;98188.81;7395725;19;20080;-58
2023/10/31 09:41:30;;;;;;;5.60;1.58;;;;;;;15.29;nan;98190.84;7399175;19;20022;-57
2023/10/31 09:43:56;;;;;;;0.25;0.25;;;;;;;17.62;nan;98196.72;7393053;19;20015;-58
2023/10/31 09:46:22;;;;;;;0.17;0.17;;;;;;;13.39;nan;98198.16;7394722;19;20014;-58
2023/10/31 09:48:49;;;;;;;0.40;0.40;;;;;;;13.26;nan;98193.28;7394886;19;20050;-57
2023/10/31 09:51:15;;;;;;;0.85;0.85;;;;;;;14.76;nan;98201.53;7394401;19;20014;-58
2023/10/31 09:53:44;;;;;;;2.53;0.98;;;;;;;15.86;nan;98198.78;7396971;19;20478;-57
2023/10/31 09:56:11;;;;;;;0.60;0.57;;;;;;;16.00;nan;98202.25;7393157;19;20484;-58
2023/10/31 09:58:39;;;;;;;0.95;0.82;;;;;;;18.18;nan;98189.88;7393552;19;20011;-58
2023/10/31 10:01:05;;;;;;;1.45;0.82;;;;;;;13.22;nan;98201.25;7392677;19;20396;-58
2023/10/31 10:03:31;;;;;;;4.80;0.90;;;;;;;13.37;nan;98207.09;7395532;19;20018;-58
2023/10/31 10:05:58;;;;;;;1.15;0.70;;;;;;;12.65;nan;98204.63;7395063;19;20078;-57
2023/10/31 10:08:24;;;;;;;0.10;0.00;;;;;;;13.68;nan;98209.09;7393772;19;20482;-58
2023/10/31 10:10:54;;;;;;;0.38;0.30;;;;;;;13.36;nan;98204.84;7394569;19;20017;-58
2023/10/31 10:13:20;;;;;;;2.40;0.73;;;;;;;13.02;nan;98212.22;7392015;19;20018;-58
2023/10/31 10:15:54;;;;;;;2.38;0.40;;;;;;;15.13;nan;98209.59;7393419;19;20478;-58
2023/10/31 10:18:27;;;;;;;0.77;0.77;;;;;;;13.11;nan;98220.22;7393814;19;20053;-58
2023/10/31 10:20:56;;;;;;;4.03;0.90;;;;;;;12.91;nan;98219.50;7393533;19;20068;-58
2023/10/31 10:23:23;;;;;;;1.85;1.23;;;;;;;12.62;nan;98223.22;7392832;19;20337;-58
2023/10/31 10:25:49;;;;;;;0.77;0.30;;;;;;;12.64;nan;98222.69;7397452;19;20463;-58
2023/10/31 10:28:16;;;;;;;1.00;0.40;;;;;;;12.53;nan;98225.63;7397758;19;20456;-58
2023/10/31 10:30:42;;;;;;;0.43;0.43;;;;;;;14.13;nan;98220.16;7392985;19;20006;-58
2023/10/31 10:33:08;;;;;;;0.10;0.00;;;;;;;13.38;nan;98225.34;7395070;19;20010;-58
2023/10/31 10:35:34;;;;;;;0.30;0.25;;;;;;;14.99;nan;98230.56;7392954;19;20014;-58
2023/10/31 10:38:03;;;;;;;1.17;0.60;;;;;;;14.10;nan;98228.88;7396967;19;20011;-58
2023/10/31 10:40:29;;;;;;;0.30;0.30;;;;;;;13.00;nan;98228.75;7393181;19;20034;-58
2023/10/31 10:43:00;;;;;;;3.20;0.68;;;;;;;12.97;nan;98229.84;7391785;19;20082;-58
2023/10/31 10:45:26;;;;;;;;;;;;;;;12.98;nan;98231.31;7393188;19;20014;-58
2023/10/31 10:47:56;;;;;;;1.27;0.65;;;;;;;13.00;nan;98232.31;7396088;19;20259;-58
2023/10/31 10:50:29;;;;;;;6.73;0.83;;;;;;;12.62;nan;98240.00;7392790;19;20032;-58
2023/10/31 10:53:11;;;;;;;3.92;1.02;;;;;;;13.22;nan;98240.38;7392626;19;20381;-58
2023/10/31 10:55:44;;;;;;;2.75;0.70;;;;;;;13.26;nan;98234.47;7391829;19;20047;-58
2023/10/31 10:58:35;;;;;;;0.85;0.75;;;;;;;13.15;nan;98232.59;7397310;19;20010;-58
2023/10/31 11:01:02;;;;;;;1.73;1.38;;;;;;;13.90;nan;98238.69;7391570;19;20014;-58
2023/10/31 11:03:29;;;;;;;1.05;0.55;;;;;;;13.20;nan;98239.41;7391924;19;20013;-58
2023/10/31 11:05:55;;;;;;;0.47;0.38;;;;;;;15.71;nan;98231.59;7392091;19;20463;-58
2023/10/31 11:08:23;;;;;;;6.75;1.08;;;;;;;15.85;nan;98230.94;7395939;19;20014;-58
2023/10/31 11:10:50;;;;;;;0.17;0.17;;;;;;;14.04;nan;98234.59;7390114;19;20483;-58
2023/10/31 11:13:16;;;;;;;0.47;0.40;;;;;;;15.54;nan;98237.66;7390907;19;20062;-58
2023/10/31 11:15:43;;;;;;;4.13;1.23;;;;;;;16.06;nan;98222.50;7389935;19;20011;-58
2023/10/31 11:18:10;;;;;;;2.28;0.50;;;;;;;16.62;nan;98225.22;7395452;19;20078;-58
2023/10/31 11:20:38;;;;;;;2.95;1.08;;;;;;;16.48;nan;98223.81;7397582;19;20013;-58
2023/10/31 11:23:06;;;;;;;0.43;0.40;;;;;;;16.65;nan;98220.56;7398211;19;20019;-58
2023/10/31 11:25:33;;;;;;;1.63;0.93;;;;;;;16.75;nan;98223.56;7402417;19;20020;-58
2023/10/31 11:28:19;;;;;;;1.05;0.82;;;;;;;18.00;nan;98219.94;7402152;19;20019;-58
2023/10/31 11:30:48;;;;;;;0.32;0.32;;;;;;;17.87;nan;98222.97;7398108;19;20017;-58
2023/10/31 11:33:18;;;;;;;0.77;0.52;;;;;;;14.46;nan;98229.97;7401160;19;20022;-58
2023/10/31 11:35:50;;;;;;;4.77;1.37;;;;;;;14.15;nan;98228.03;7399069;19;20015;-58
2023/10/31 11:38:16;;;;;;;1.20;0.88;;;;;;;15.35;nan;98233.53;7401551;19;20007;-58
2023/10/31 11:40:45;;;;;;;0.75;0.65;;;;;;;14.41;nan;98237.19;7396196;19;20082;-58
2023/10/31 11:43:11;;;;;;;1.50;0.95;;;;;;;13.44;nan;98234.44;7397406;19;20007;-58
2023/10/31 11:45:47;;;;;;;0.88;0.88;;;;;;;13.55;nan;98231.44;7398243;19;20011;-59
2023/10/31 11:48:16;;;;;;;3.08;0.60;;;;;;;16.01;nan;98229.00;7402206;19;20018;-58